WADD/DPS METAR and TAF weather

Enter ICAO airport designator
Station Type Date Time Source
WADD METAR 2021/09/28 04:30 UTC NOAA

WADD 280430Z 12012KT 9999 FEW017 29/23 Q1010 NOSIG


Station Type Date Time Source
WADD Decoded METAR 2021/09/28 04:30 UTC NOAA

Station name not available
Sep 28, 2021 - 12:30 AM EDT / 2021.09.28 0430 UTC
Wind: from the ESE (120 degrees) at 14 MPH (12 KT):0
Visibility: greater than 7 mile(s):0
Sky conditions: mostly clear
Temperature: 84 F (29 C)
Dew Point: 73 F (23 C)
Relative Humidity: 70%
Pressure (altimeter): 29.83 in. Hg (1010 hPa)
ob: WADD 280430Z 12012KT 9999 FEW017 29/23 Q1010 NOSIG
cycle: 4

Station Type Date Time Source
WADD TAF 2021/09/27 18:09 UTC NOAA

TAF TAF WADD 271700Z 2718/2818 11010KT 9999 SCT016

Example: see airport list